Time;durP1;ratioP1;P1;durP2;ratioP2;P2;SDS_P1;SDS_P2;PMS_P1;PMS_P2;Temp;Humidity;BMP_temperature;BMP_pressure;BME280_temperature;BME280_humidity;BME280_pressure;Samples;Min_cycle;Max_cycle;Signal;HPM_P1;HPM_P2
2022/04/28 00:01:44;;;;;;;10.07;6.00;;;;;;;;;;5094396;28;20209;-54
2022/04/28 00:04:10;;;;;;;9.07;5.30;;;;;;;;;;5094368;28;20289;-54
2022/04/28 00:06:36;;;;;;;6.80;5.87;;;;;;;;;;5094452;28;20293;-54
2022/04/28 00:09:02;;;;;;;7.87;5.77;;;;;;;;;;5094213;28;20248;-54
2022/04/28 00:11:28;;;;;;;11.33;7.20;;;;;;;;;;5094365;28;20188;-54
2022/04/28 00:13:54;;;;;;;9.03;6.67;;;;;;;;;;5094113;28;20206;-55
2022/04/28 00:16:20;;;;;;;8.97;6.00;;;;;;;;;;5094129;28;20203;-54
2022/04/28 00:18:47;;;;;;;7.93;5.80;;;;;;;;;;5094308;28;20225;-54
2022/04/28 00:21:13;;;;;;;7.60;5.90;;;;;;;;;;5092424;28;20665;-55
2022/04/28 00:23:39;;;;;;;9.70;5.90;;;;;;;;;;5094106;28;20433;-55
2022/04/28 00:26:05;;;;;;;10.23;5.80;;;;;;;;;;5092151;28;20740;-54
2022/04/28 00:28:31;;;;;;;9.40;6.00;;;;;;;;;;5094197;28;20198;-54
2022/04/28 00:30:57;;;;;;;8.03;5.80;;;;;;;;;;5093792;28;20318;-54
2022/04/28 00:33:23;;;;;;;11.53;5.20;;;;;;;;;;5093863;28;20195;-54
2022/04/28 00:35:51;;;;;;;9.00;6.03;;;;;;;;;;5093957;28;20653;-54
2022/04/28 00:38:17;;;;;;;8.00;5.90;;;;;;;;;;5093549;28;20294;-54
2022/04/28 00:40:44;;;;;;;8.43;5.70;;;;;;;;;;5094046;28;20221;-54
2022/04/28 00:43:18;;;;;;;9.87;6.27;;;;;;;;;;5093698;28;21006;-54
2022/04/28 00:45:44;;;;;;;8.93;6.00;;;;;;;;;;5093747;28;20433;-54
2022/04/28 00:50:57;;;;;;;9.60;5.70;;;;;;;;;;5093588;28;20525;-54
2022/04/28 00:53:26;;;;;;;16.57;7.33;;;;;;;;;;5093682;28;20437;-53
2022/04/28 00:55:52;;;;;;;7.20;5.83;;;;;;;;;;5093548;28;20491;-54
2022/04/28 00:58:19;;;;;;;8.30;5.60;;;;;;;;;;5093360;28;20440;-54
2022/04/28 01:00:46;;;;;;;9.13;6.50;;;;;;;;;;5093597;28;20270;-54
2022/04/28 01:03:12;;;;;;;7.30;6.47;;;;;;;;;;5093413;28;20437;-54
2022/04/28 01:05:38;;;;;;;9.43;6.53;;;;;;;;;;5093308;28;20953;-54
2022/04/28 01:08:06;;;;;;;10.70;6.57;;;;;;;;;;5093217;28;20198;-53
2022/04/28 01:10:32;;;;;;;9.83;6.40;;;;;;;;;;5093209;28;20226;-54
2022/04/28 01:12:58;;;;;;;9.37;7.00;;;;;;;;;;5093102;28;20528;-53
2022/04/28 01:15:24;;;;;;;13.10;7.47;;;;;;;;;;5091558;28;20230;-53
2022/04/28 01:17:50;;;;;;;11.40;6.80;;;;;;;;;;5093081;28;20508;-54
2022/04/28 01:20:16;;;;;;;10.03;6.93;;;;;;;;;;5093058;28;20970;-52
2022/04/28 01:22:44;;;;;;;7.43;6.53;;;;;;;;;;5093112;28;20195;-52
2022/04/28 01:25:11;;;;;;;10.77;6.70;;;;;;;;;;5092808;28;20222;-53
2022/04/28 01:27:37;;;;;;;8.90;6.73;;;;;;;;;;5093102;28;20440;-52
2022/04/28 01:30:04;;;;;;;9.63;6.90;;;;;;;;;;5092644;28;20473;-53
2022/04/28 01:32:30;;;;;;;11.27;6.57;;;;;;;;;;5092953;28;20441;-53
2022/04/28 01:34:56;;;;;;;11.23;6.83;;;;;;;;;;5092907;28;20441;-53
2022/04/28 01:37:22;;;;;;;8.37;6.20;;;;;;;;;;5092537;28;20256;-54
2022/04/28 01:39:49;;;;;;;9.60;6.67;;;;;;;;;;5092780;28;20289;-54
2022/04/28 01:42:15;;;;;;;9.10;6.33;;;;;;;;;;5091556;28;20203;-54
2022/04/28 01:44:41;;;;;;;11.37;6.90;;;;;;;;;;5092617;28;20441;-53
2022/04/28 01:47:07;;;;;;;9.97;7.00;;;;;;;;;;5092772;28;20195;-54
2022/04/28 01:49:33;;;;;;;11.03;7.67;;;;;;;;;;5091911;28;20752;-54
2022/04/28 01:54:58;;;;;;;8.47;6.57;;;;;;;;;;5092625;28;20244;-53
2022/04/28 01:57:27;;;;;;;13.47;7.10;;;;;;;;;;5092387;28;20440;-53
2022/04/28 01:59:53;;;;;;;9.60;6.47;;;;;;;;;;5092323;28;20436;-52
2022/04/28 02:02:19;;;;;;;8.43;7.30;;;;;;;;;;5092387;28;20440;-53
2022/04/28 02:04:45;;;;;;;8.97;7.07;;;;;;;;;;5092272;28;20486;-53
2022/04/28 02:07:13;;;;;;;12.50;7.20;;;;;;;;;;5092242;28;20801;-53
2022/04/28 02:09:39;;;;;;;9.87;6.20;;;;;;;;;;5092241;28;20218;-53
2022/04/28 02:12:05;;;;;;;10.07;7.00;;;;;;;;;;5092076;28;20433;-54
2022/04/28 02:14:32;;;;;;;8.73;7.03;;;;;;;;;;5092015;28;20307;-53
2022/04/28 02:16:58;;;;;;;7.67;6.53;;;;;;;;;;5092196;28;20859;-54
2022/04/28 02:19:24;;;;;;;13.13;7.67;;;;;;;;;;5091988;28;20430;-53
2022/04/28 02:21:50;;;;;;;9.10;6.67;;;;;;;;;;5091976;28;20202;-54
2022/04/28 02:24:16;;;;;;;8.97;6.80;;;;;;;;;;5091664;28;20222;-54
2022/04/28 02:26:42;;;;;;;9.57;7.73;;;;;;;;;;5091604;28;20482;-54
2022/04/28 02:29:08;;;;;;;11.10;7.30;;;;;;;;;;5091702;28;20436;-54
2022/04/28 02:31:35;;;;;;;10.07;7.37;;;;;;;;;;5091900;28;20206;-54
2022/04/28 02:34:01;;;;;;;9.40;7.00;;;;;;;;;;5091878;28;20213;-54
2022/04/28 02:36:27;;;;;;;9.17;7.20;;;;;;;;;;5092109;28;20428;-53
2022/04/28 02:38:53;;;;;;;12.83;7.37;;;;;;;;;;5091933;28;20556;-53
2022/04/28 02:41:20;;;;;;;8.20;7.00;;;;;;;;;;5091726;28;20946;-54
2022/04/28 02:43:46;;;;;;;9.77;7.13;;;;;;;;;;5091918;28;20652;-54
2022/04/28 02:46:12;;;;;;;10.13;7.53;;;;;;;;;;5091677;28;20425;-53
2022/04/28 02:48:40;;;;;;;10.73;7.63;;;;;;;;;;5091940;28;20571;-54
2022/04/28 02:51:06;;;;;;;10.20;6.83;;;;;;;;;;5091759;28;20223;-53
2022/04/28 02:53:32;;;;;;;11.33;7.23;;;;;;;;;;5091893;28;20440;-54
2022/04/28 02:55:58;;;;;;;10.73;7.10;;;;;;;;;;5091830;28;20425;-54
2022/04/28 02:58:24;;;;;;;15.23;8.40;;;;;;;;;;5091810;28;20187;-54
2022/04/28 03:00:50;;;;;;;8.87;7.70;;;;;;;;;;5094382;28;20429;-54
2022/04/28 03:03:16;;;;;;;9.20;6.77;;;;;;;;;;5095850;28;20433;-53
2022/04/28 03:11:12;;;;;;;12.13;7.40;;;;;;;;;;5095714;28;21039;-54
2022/04/28 03:13:39;;;;;;;8.90;6.90;;;;;;;;;;5095693;28;20508;-54
2022/04/28 03:16:05;;;;;;;8.77;6.87;;;;;;;;;;5095351;28;20239;-54
2022/04/28 03:18:31;;;;;;;11.07;8.00;;;;;;;;;;5095644;28;20429;-53
2022/04/28 03:20:58;;;;;;;10.30;7.63;;;;;;;;;;5095463;28;20433;-52
2022/04/28 03:23:24;;;;;;;8.60;6.83;;;;;;;;;;5095319;28;20919;-53
2022/04/28 03:25:51;;;;;;;8.47;6.93;;;;;;;;;;5095166;28;20962;-53
2022/04/28 03:28:18;;;;;;;10.17;7.83;;;;;;;;;;5095180;28;20787;-54
2022/04/28 03:30:44;;;;;;;11.67;7.60;;;;;;;;;;5095044;28;20488;-53
2022/04/28 03:33:10;;;;;;;8.00;6.70;;;;;;;;;;5095135;28;20439;-53
2022/04/28 03:35:36;;;;;;;9.17;7.37;;;;;;;;;;5095268;28;20836;-53
2022/04/28 03:38:03;;;;;;;12.40;7.37;;;;;;;;;;5094923;28;20425;-53
2022/04/28 03:40:29;;;;;;;9.63;6.67;;;;;;;;;;5095189;28;20440;-53
2022/04/28 03:42:57;;;;;;;11.60;7.47;;;;;;;;;;5094960;28;20420;-53
2022/04/28 03:45:24;;;;;;;8.60;6.90;;;;;;;;;;5094796;28;20960;-52
2022/04/28 03:47:50;;;;;;;9.23;7.23;;;;;;;;;;5094884;28;20437;-53
2022/04/28 03:50:17;;;;;;;8.40;6.50;;;;;;;;;;5094698;28;20756;-53
2022/04/28 03:52:43;;;;;;;8.03;7.23;;;;;;;;;;5094875;28;20195;-53
2022/04/28 03:55:10;;;;;;;13.97;8.00;;;;;;;;;;5094564;28;20440;-54
2022/04/28 03:57:36;;;;;;;10.07;7.20;;;;;;;;;;5094624;28;20437;-54
2022/04/28 04:00:03;;;;;;;9.07;7.53;;;;;;;;;;5094386;28;20489;-53
2022/04/28 04:02:29;;;;;;;10.57;7.03;;;;;;;;;;5094729;28;20456;-53
2022/04/28 04:04:55;;;;;;;10.70;8.23;;;;;;;;;;5094315;28;20951;-53
2022/04/28 04:07:21;;;;;;;12.07;7.90;;;;;;;;;;5094338;28;20509;-52
2022/04/28 04:09:47;;;;;;;10.93;7.50;;;;;;;;;;5094306;28;20218;-53
2022/04/28 04:12:14;;;;;;;7.67;6.97;;;;;;;;;;5093541;28;20199;-53
2022/04/28 04:14:40;;;;;;;10.60;7.37;;;;;;;;;;5094148;28;20235;-53
2022/04/28 04:17:06;;;;;;;10.37;7.60;;;;;;;;;;5094128;28;20533;-53
2022/04/28 04:19:32;;;;;;;8.50;6.50;;;;;;;;;;5094281;28;20214;-53
2022/04/28 04:21:58;;;;;;;10.57;7.20;;;;;;;;;;5094326;28;20214;-53
2022/04/28 04:24:24;;;;;;;8.70;7.13;;;;;;;;;;5094247;28;20467;-53
2022/04/28 04:26:50;;;;;;;9.93;7.80;;;;;;;;;;5094208;28;20488;-54
2022/04/28 04:29:18;;;;;;;12.00;7.60;;;;;;;;;;5093947;28;20476;-54
2022/04/28 04:34:29;;;;;;;8.20;6.60;;;;;;;;;;5094105;28;20550;-54
2022/04/28 04:36:55;;;;;;;10.07;7.73;;;;;;;;;;5093693;28;20865;-54
2022/04/28 04:39:21;;;;;;;12.07;8.07;;;;;;;;;;5093669;28;20195;-54
2022/04/28 04:41:47;;;;;;;11.53;7.30;;;;;;;;;;5093871;28;20199;-54
2022/04/28 04:44:14;;;;;;;10.30;7.77;;;;;;;;;;5093550;28;20551;-54
2022/04/28 04:46:41;;;;;;;12.07;7.50;;;;;;;;;;5093788;28;20842;-54
2022/04/28 04:49:07;;;;;;;12.67;8.70;;;;;;;;;;5093486;28;20431;-54
2022/04/28 04:51:34;;;;;;;11.50;7.87;;;;;;;;;;5093534;28;20477;-54
2022/04/28 04:54:00;;;;;;;9.13;7.67;;;;;;;;;;5093529;28;20923;-54
2022/04/28 04:56:26;;;;;;;11.47;7.87;;;;;;;;;;5093446;28;20429;-54
2022/04/28 04:58:52;;;;;;;11.30;7.90;;;;;;;;;;5093433;28;20194;-54
2022/04/28 05:01:18;;;;;;;11.87;8.07;;;;;;;;;;5093327;28;20199;-53
2022/04/28 05:03:45;;;;;;;12.70;9.33;;;;;;;;;;5093455;28;20195;-54
2022/04/28 05:06:11;;;;;;;8.33;7.53;;;;;;;;;;5092986;28;20199;-54
2022/04/28 05:08:37;;;;;;;9.97;8.03;;;;;;;;;;5093131;28;20472;-54
2022/04/28 05:11:03;;;;;;;10.17;7.87;;;;;;;;;;5093106;28;20248;-54
2022/04/28 05:13:29;;;;;;;13.03;8.43;;;;;;;;;;5093269;28;20463;-54
2022/04/28 05:15:55;;;;;;;13.97;8.57;;;;;;;;;;5092889;28;20266;-54
2022/04/28 05:18:21;;;;;;;13.73;8.80;;;;;;;;;;5092724;28;20228;-54
2022/04/28 05:20:50;;;;;;;10.33;8.20;;;;;;;;;;5093100;28;20508;-54
2022/04/28 05:23:16;;;;;;;12.10;8.67;;;;;;;;;;5092944;28;20207;-54
2022/04/28 05:25:42;;;;;;;11.80;8.73;;;;;;;;;;5093039;28;20456;-54
2022/04/28 05:28:08;;;;;;;14.07;9.90;;;;;;;;;;5092787;28;20437;-54
2022/04/28 05:30:34;;;;;;;12.27;8.53;;;;;;;;;;5092843;28;20231;-54
2022/04/28 05:33:00;;;;;;;12.47;8.73;;;;;;;;;;5092885;28;20676;-54
2022/04/28 05:35:27;;;;;;;14.93;9.97;;;;;;;;;;5092718;28;20437;-54
2022/04/28 05:37:55;;;;;;;16.63;10.17;;;;;;;;;;5092762;28;20223;-53
2022/04/28 05:40:21;;;;;;;16.77;10.27;;;;;;;;;;5092442;28;20437;-53
2022/04/28 05:45:43;;;;;;;13.27;9.70;;;;;;;;;;5092499;28;20787;-53
2022/04/28 05:48:09;;;;;;;13.97;9.90;;;;;;;;;;5092367;28;20436;-53
2022/04/28 05:50:35;;;;;;;13.43;8.57;;;;;;;;;;5092367;28;20496;-52
2022/04/28 05:53:03;;;;;;;10.33;8.37;;;;;;;;;;5090669;28;20249;-52
2022/04/28 05:55:29;;;;;;;11.70;8.97;;;;;;;;;;5092579;28;20540;-53
2022/04/28 05:57:58;;;;;;;11.53;8.30;;;;;;;;;;5092355;28;20456;-53
2022/04/28 06:00:24;;;;;;;11.63;7.70;;;;;;;;;;5092123;28;20195;-54
2022/04/28 06:02:50;;;;;;;9.03;7.40;;;;;;;;;;5092222;28;20440;-53
2022/04/28 06:05:17;;;;;;;9.77;6.90;;;;;;;;;;5092172;28;20268;-54
2022/04/28 06:07:42;;;;;;;9.70;7.03;;;;;;;;;;5092380;28;20198;-54
2022/04/28 06:10:10;;;;;;;13.20;7.53;;;;;;;;;;5092079;28;20975;-54
2022/04/28 06:12:36;;;;;;;9.67;6.20;;;;;;;;;;5091781;28;20282;-54
2022/04/28 06:15:03;;;;;;;10.60;6.83;;;;;;;;;;5091377;28;20241;-55
2022/04/28 06:17:29;;;;;;;10.80;6.80;;;;;;;;;;5092067;28;20195;-54
2022/04/28 06:19:55;;;;;;;10.03;6.90;;;;;;;;;;5092043;28;20557;-54
2022/04/28 06:22:21;;;;;;;11.10;7.40;;;;;;;;;;5091842;28;20195;-54
2022/04/28 06:24:50;;;;;;;13.33;6.90;;;;;;;;;;5091897;28;20653;-54
2022/04/28 06:27:18;;;;;;;11.50;6.17;;;;;;;;;;5091811;28;20635;-55
2022/04/28 06:29:44;;;;;;;7.60;6.17;;;;;;;;;;5091775;28;20234;-55
2022/04/28 06:32:10;;;;;;;10.77;5.67;;;;;;;;;;5091867;28;20248;-55
2022/04/28 06:34:36;;;;;;;9.93;6.33;;;;;;;;;;5091617;28;20215;-55
2022/04/28 06:37:03;;;;;;;10.13;5.73;;;;;;;;;;5091976;28;20688;-54
2022/04/28 06:39:28;;;;;;;10.43;6.03;;;;;;;;;;5091918;28;20199;-54
2022/04/28 06:41:54;;;;;;;12.90;5.80;;;;;;;;;;5092056;28;20614;-53
2022/04/28 06:44:22;;;;;;;9.53;5.87;;;;;;;;;;5091623;28;20202;-54
2022/04/28 06:46:48;;;;;;;8.03;5.40;;;;;;;;;;5091645;28;20549;-54
2022/04/28 06:49:14;;;;;;;9.93;5.70;;;;;;;;;;5091657;28;20198;-54
2022/04/28 06:51:40;;;;;;;10.60;5.70;;;;;;;;;;5091629;28;20226;-54
2022/04/28 06:54:06;;;;;;;7.77;5.40;;;;;;;;;;5091300;28;20198;-54
2022/04/28 06:56:32;;;;;;;10.70;5.33;;;;;;;;;;5091319;28;20191;-54
2022/04/28 06:58:57;;;;;;;11.17;5.17;;;;;;;;;;5090979;28;20202;-54
2022/04/28 07:01:25;;;;;;;8.43;5.00;;;;;;;;;;5091298;28;20205;-54
2022/04/28 07:03:51;;;;;;;9.20;4.70;;;;;;;;;;5089569;28;20201;-54
2022/04/28 07:06:17;;;;;;;9.67;4.77;;;;;;;;;;5091555;28;20199;-54
2022/04/28 07:08:43;;;;;;;9.93;3.80;;;;;;;;;;5091487;28;20186;-54
2022/04/28 07:11:09;;;;;;;7.70;3.73;;;;;;;;;;5091212;28;20226;-54
2022/04/28 07:13:36;;;;;;;8.73;3.10;;;;;;;;;;5091040;28;20622;-54
2022/04/28 07:16:02;;;;;;;7.13;3.27;;;;;;;;;;5091219;28;20235;-54
2022/04/28 07:18:29;;;;;;;7.17;4.00;;;;;;;;;;5091392;28;20209;-54
2022/04/28 07:20:56;;;;;;;7.73;4.00;;;;;;;;;;5091296;28;20214;-54
2022/04/28 07:23:22;;;;;;;9.87;4.87;;;;;;;;;;5091324;28;20214;-54
2022/04/28 07:25:48;;;;;;;7.67;4.43;;;;;;;;;;5091194;28;20249;-54
2022/04/28 07:28:14;;;;;;;8.17;4.53;;;;;;;;;;5091305;28;20201;-54
2022/04/28 07:30:40;;;;;;;12.57;4.70;;;;;;;;;;5091335;28;20223;-54
2022/04/28 07:33:08;;;;;;;9.63;4.53;;;;;;;;;;5091328;28;20241;-54
2022/04/28 07:35:35;;;;;;;10.20;4.30;;;;;;;;;;5091458;28;20203;-54
2022/04/28 07:38:01;;;;;;;6.73;3.90;;;;;;;;;;5091380;28;20207;-54
2022/04/28 07:40:27;;;;;;;8.43;3.93;;;;;;;;;;5091331;28;20217;-54
2022/04/28 07:42:53;;;;;;;11.23;3.77;;;;;;;;;;5091459;28;20194;-54
2022/04/28 07:45:19;;;;;;;9.93;4.23;;;;;;;;;;5091164;28;20658;-56
2022/04/28 07:47:45;;;;;;;10.60;3.77;;;;;;;;;;5093694;28;20207;-55
2022/04/28 07:50:11;;;;;;;6.90;3.40;;;;;;;;;;5094847;28;20223;-54
2022/04/28 07:52:39;;;;;;;6.50;3.33;;;;;;;;;;5094718;28;20233;-53
2022/04/28 07:55:06;;;;;;;8.20;3.77;;;;;;;;;;5094543;28;20210;-54
2022/04/28 07:57:32;;;;;;;7.17;4.00;;;;;;;;;;5094782;28;20187;-54
2022/04/28 07:59:58;;;;;;;6.43;3.30;;;;;;;;;;5094760;28;20206;-56
2022/04/28 08:02:24;;;;;;;8.10;3.80;;;;;;;;;;5093952;28;20219;-56
2022/04/28 08:04:50;;;;;;;9.47;3.50;;;;;;;;;;5094669;28;20215;-56
2022/04/28 08:07:16;;;;;;;7.70;4.00;;;;;;;;;;5094375;28;20683;-56
2022/04/28 08:09:44;;;;;;;11.27;4.53;;;;;;;;;;5094411;28;20203;-56
2022/04/28 08:12:10;;;;;;;9.47;4.10;;;;;;;;;;5094242;28;20795;-56
2022/04/28 08:14:37;;;;;;;8.17;3.40;;;;;;;;;;5094037;28;20283;-56
2022/04/28 08:17:04;;;;;;;7.70;3.93;;;;;;;;;;5094239;28;20179;-56
2022/04/28 08:19:32;;;;;;;9.10;4.33;;;;;;;;;;5094184;28;20282;-56
2022/04/28 08:21:58;;;;;;;8.23;4.67;;;;;;;;;;5094202;28;20175;-56
2022/04/28 08:24:24;;;;;;;10.53;4.53;;;;;;;;;;5093989;28;20245;-56
2022/04/28 08:26:52;;;;;;;7.50;4.40;;;;;;;;;;5094126;28;20210;-55
2022/04/28 08:29:18;;;;;;;8.63;4.30;;;;;;;;;;5092201;28;20698;-57
2022/04/28 08:31:45;;;;;;;8.07;4.47;;;;;;;;;;5091152;28;20231;-58
2022/04/28 08:34:11;;;;;;;7.73;4.13;;;;;;;;;;5093718;28;20201;-56
2022/04/28 08:36:37;;;;;;;14.47;4.47;;;;;;;;;;5093805;28;20222;-57
2022/04/28 08:39:03;;;;;;;7.07;4.60;;;;;;;;;;5093890;28;20195;-56
2022/04/28 08:41:34;;;;;;;8.77;4.80;;;;;;;;;;5093801;28;20198;-56
2022/04/28 08:44:02;;;;;;;8.63;4.47;;;;;;;;;;5093858;28;20201;-56
2022/04/28 08:49:13;;;;;;;10.60;5.13;;;;;;;;;;5093637;28;20193;-56
2022/04/28 08:51:39;;;;;;;9.00;5.20;;;;;;;;;;5093578;28;20223;-57
2022/04/28 08:54:06;;;;;;;8.37;4.90;;;;;;;;;;5093285;28;20198;-56
2022/04/28 08:56:32;;;;;;;9.67;5.17;;;;;;;;;;5093422;28;20199;-56
2022/04/28 08:58:58;;;;;;;12.17;5.60;;;;;;;;;;5093017;28;20273;-57
2022/04/28 09:01:27;;;;;;;7.23;4.53;;;;;;;;;;5093354;28;20617;-57
2022/04/28 09:03:53;;;;;;;11.00;5.23;;;;;;;;;;5093300;28;20203;-56
2022/04/28 09:06:20;;;;;;;8.73;5.03;;;;;;;;;;5093316;28;20215;-57
2022/04/28 09:08:46;;;;;;;8.80;5.17;;;;;;;;;;5093098;28;20258;-56
2022/04/28 09:11:16;;;;;;;8.93;5.10;;;;;;;;;;5092711;28;20244;-56
2022/04/28 09:16:28;;;;;;;8.63;5.13;;;;;;;;;;5091129;28;20202;-56
2022/04/28 09:18:55;;;;;;;8.47;4.87;;;;;;;;;;5093051;28;20211;-55
2022/04/28 09:21:21;;;;;;;10.20;5.07;;;;;;;;;;5092891;28;20181;-55
2022/04/28 09:23:51;;;;;;;7.33;4.43;;;;;;;;;;5093250;28;20269;-54
2022/04/28 09:26:17;;;;;;;8.27;4.67;;;;;;;;;;5092573;28;20614;-54
2022/04/28 09:28:43;;;;;;;8.90;4.70;;;;;;;;;;5092869;28;20232;-54
2022/04/28 09:31:09;;;;;;;6.97;4.67;;;;;;;;;;5092695;28;20227;-54
2022/04/28 09:33:38;;;;;;;6.77;4.27;;;;;;;;;;5092675;28;20719;-54
2022/04/28 09:36:05;;;;;;;7.73;4.63;;;;;;;;;;5090873;28;20204;-54
2022/04/28 09:38:31;;;;;;;7.57;4.10;;;;;;;;;;5092348;28;20295;-54
2022/04/28 09:43:42;;;;;;;6.93;4.63;;;;;;;;;;5092365;28;20679;-55
2022/04/28 09:46:08;;;;;;;7.60;4.70;;;;;;;;;;5092130;28;20195;-55
2022/04/28 09:48:36;;;;;;;6.27;4.17;;;;;;;;;;5092105;28;20197;-55
2022/04/28 09:51:05;;;;;;;8.97;3.73;;;;;;;;;;5092123;28;20632;-53
2022/04/28 09:53:33;;;;;;;7.87;4.27;;;;;;;;;;5092243;28;20207;-53
2022/04/28 09:56:00;;;;;;;8.40;3.80;;;;;;;;;;5092268;28;20567;-54
2022/04/28 09:58:26;;;;;;;8.87;4.03;;;;;;;;;;5091905;28;20202;-54
2022/04/28 10:00:53;;;;;;;7.17;4.13;;;;;;;;;;5091868;28;20672;-54
2022/04/28 10:03:19;;;;;;;9.30;4.63;;;;;;;;;;5092153;28;20202;-54
2022/04/28 10:05:46;;;;;;;7.17;3.80;;;;;;;;;;5092172;28;20198;-54
2022/04/28 10:08:14;;;;;;;9.43;3.73;;;;;;;;;;5092146;28;20274;-54
2022/04/28 10:10:40;;;;;;;5.93;4.40;;;;;;;;;;5091493;28;20234;-54
2022/04/28 10:13:06;;;;;;;4.57;3.60;;;;;;;;;;5091710;28;20224;-54
2022/04/28 10:15:33;;;;;;;8.13;3.97;;;;;;;;;;5089672;28;20778;-54
2022/04/28 10:18:00;;;;;;;8.47;3.67;;;;;;;;;;5090552;28;20199;-54
2022/04/28 10:20:29;;;;;;;6.20;3.97;;;;;;;;;;5091367;28;20191;-54
2022/04/28 10:22:56;;;;;;;6.97;4.07;;;;;;;;;;5091687;28;20195;-54
2022/04/28 10:33:45;;;;;;;6.10;3.70;;;;;;;;;;5091796;28;20267;-56
2022/04/28 10:36:15;;;;;;;9.47;4.07;;;;;;;;;;5091115;28;20733;-54
2022/04/28 10:38:42;;;;;;;6.13;3.97;;;;;;;;;;5091314;28;20641;-55
2022/04/28 10:41:10;;;;;;;5.77;3.83;;;;;;;;;;5091494;28;20199;-56
2022/04/28 10:43:40;;;;;;;4.60;3.37;;;;;;;;;;5091516;28;20195;-55
2022/04/28 10:46:23;;;;;;;6.30;3.50;;;;;;;;;;5091443;28;20191;-56
2022/04/28 10:48:52;;;;;;;5.40;3.03;;;;;;;;;;5091357;28;20199;-56
2022/04/28 10:51:19;;;;;;;6.27;3.33;;;;;;;;;;5091206;28;20215;-55
2022/04/28 10:54:03;;;;;;;6.03;3.03;;;;;;;;;;5091637;28;20190;-55
2022/04/28 10:56:31;;;;;;;6.50;3.63;;;;;;;;;;5091401;28;20289;-55
2022/04/28 10:58:59;;;;;;;5.27;2.97;;;;;;;;;;5091414;28;20667;-55
2022/04/28 11:01:26;;;;;;;6.97;3.00;;;;;;;;;;5091261;28;20213;-56
2022/04/28 11:03:53;;;;;;;3.77;3.03;;;;;;;;;;5091449;28;20203;-56
2022/04/28 11:06:19;;;;;;;6.23;2.93;;;;;;;;;;5091176;28;20201;-56
2022/04/28 11:08:46;;;;;;;6.97;3.60;;;;;;;;;;5091353;28;20202;-55
2022/04/28 11:11:13;;;;;;;5.27;3.07;;;;;;;;;;5090979;28;20233;-56
2022/04/28 11:13:43;;;;;;;4.33;3.10;;;;;;;;;;5091116;28;20723;-56
2022/04/28 11:16:10;;;;;;;6.77;3.47;;;;;;;;;;5090686;28;20231;-56
2022/04/28 11:18:36;;;;;;;5.90;3.50;;;;;;;;;;5091448;28;20191;-56
2022/04/28 11:21:03;;;;;;;4.53;2.87;;;;;;;;;;5092767;28;20191;-54
2022/04/28 11:23:33;;;;;;;8.07;3.33;;;;;;;;;;5095307;28;20657;-56
2022/04/28 11:25:59;;;;;;;6.17;2.97;;;;;;;;;;5093653;28;20198;-55
2022/04/28 11:28:26;;;;;;;8.67;3.67;;;;;;;;;;5094866;28;20663;-55
2022/04/28 11:30:53;;;;;;;5.23;3.40;;;;;;;;;;5093268;28;20227;-58
2022/04/28 11:33:21;;;;;;;5.90;3.30;;;;;;;;;;5094970;28;20207;-55
2022/04/28 11:35:47;;;;;;;4.57;3.30;;;;;;;;;;5095216;28;20589;-56
2022/04/28 11:38:13;;;;;;;6.97;3.80;;;;;;;;;;5095182;28;20713;-55
2022/04/28 11:40:39;;;;;;;6.27;3.83;;;;;;;;;;5094757;28;20283;-55
2022/04/28 11:43:06;;;;;;;6.53;3.73;;;;;;;;;;5094964;28;20245;-54
2022/04/28 11:45:32;;;;;;;6.77;3.50;;;;;;;;;;5094949;28;20230;-55
2022/04/28 11:48:00;;;;;;;6.00;3.23;;;;;;;;;;5094982;28;20290;-55
2022/04/28 11:50:30;;;;;;;5.03;3.50;;;;;;;;;;5094614;28;20227;-55
2022/04/28 11:52:59;;;;;;;5.87;3.40;;;;;;;;;;5094689;28;20211;-55
2022/04/28 11:55:30;;;;;;;8.07;3.70;;;;;;;;;;5089748;28;20214;-55
2022/04/28 11:57:56;;;;;;;7.47;3.37;;;;;;;;;;5094620;28;20279;-56
2022/04/28 12:00:26;;;;;;;5.03;3.67;;;;;;;;;;5094466;28;20200;-57
2022/04/28 12:02:53;;;;;;;11.23;4.57;;;;;;;;;;5094621;28;20179;-56
2022/04/28 12:05:22;;;;;;;7.43;3.57;;;;;;;;;;5094453;28;20194;-55
2022/04/28 12:07:51;;;;;;;8.97;4.20;;;;;;;;;;5094424;28;20202;-56
2022/04/28 12:15:52;;;;;;;6.87;4.00;;;;;;;;;;5094188;28;20338;-56
2022/04/28 12:21:15;;;;;;;8.67;4.13;;;;;;;;;;5094331;28;20194;-57
2022/04/28 12:23:42;;;;;;;7.13;4.10;;;;;;;;;;5094415;28;20213;-57
2022/04/28 12:26:09;;;;;;;5.97;3.57;;;;;;;;;;5094140;28;20657;-57
2022/04/28 12:28:38;;;;;;;5.23;3.67;;;;;;;;;;5094104;28;20201;-57
2022/04/28 12:31:04;;;;;;;7.10;3.83;;;;;;;;;;5092179;28;20280;-56
2022/04/28 12:33:34;;;;;;;6.97;3.77;;;;;;;;;;5093348;28;20204;-56
2022/04/28 12:36:01;;;;;;;6.33;4.00;;;;;;;;;;5094059;28;20197;-56
2022/04/28 12:38:30;;;;;;;6.27;3.67;;;;;;;;;;5093836;28;20206;-57
2022/04/28 12:40:56;;;;;;;7.37;4.23;;;;;;;;;;5092660;28;20611;-56
2022/04/28 12:43:35;;;;;;;6.83;3.90;;;;;;;;;;5093398;28;20246;-56
2022/04/28 12:46:01;;;;;;;8.47;3.93;;;;;;;;;;5091973;28;20241;-56
2022/04/28 12:48:28;;;;;;;10.30;4.20;;;;;;;;;;5093350;28;20274;-56
2022/04/28 12:51:13;;;;;;;7.33;4.10;;;;;;;;;;5093202;28;20693;-56
2022/04/28 12:53:40;;;;;;;5.87;4.03;;;;;;;;;;5093321;28;20203;-56
2022/04/28 12:56:08;;;;;;;6.90;4.20;;;;;;;;;;5093174;28;20253;-56
2022/04/28 12:58:37;;;;;;;8.07;4.20;;;;;;;;;;5093011;28;20204;-56
2022/04/28 13:01:03;;;;;;;6.90;3.57;;;;;;;;;;5093105;28;20202;-56
2022/04/28 13:03:30;;;;;;;6.93;4.53;;;;;;;;;;5092959;28;20613;-56
2022/04/28 13:05:56;;;;;;;8.90;4.53;;;;;;;;;;5093199;28;20227;-55
2022/04/28 13:08:22;;;;;;;5.53;4.13;;;;;;;;;;5093273;28;20613;-57
2022/04/28 13:10:50;;;;;;;6.47;3.70;;;;;;;;;;5093065;28;20236;-56
2022/04/28 13:13:16;;;;;;;8.33;4.20;;;;;;;;;;5093175;28;20211;-57
2022/04/28 13:15:42;;;;;;;6.83;4.73;;;;;;;;;;5092884;28;20244;-56
2022/04/28 13:18:08;;;;;;;17.10;4.67;;;;;;;;;;5093062;28;20203;-56
2022/04/28 13:20:34;;;;;;;9.13;4.30;;;;;;;;;;5092717;28;20654;-56
2022/04/28 13:23:00;;;;;;;8.13;4.70;;;;;;;;;;5092889;28;20208;-56
2022/04/28 13:25:26;;;;;;;7.77;4.63;;;;;;;;;;5092696;28;20289;-56
2022/04/28 13:27:53;;;;;;;8.67;4.40;;;;;;;;;;5092810;28;20279;-57
2022/04/28 13:30:20;;;;;;;5.30;4.17;;;;;;;;;;5092471;28;20248;-56
2022/04/28 13:32:46;;;;;;;8.00;4.20;;;;;;;;;;5092736;28;20628;-56
2022/04/28 13:35:12;;;;;;;7.80;4.00;;;;;;;;;;5092495;28;20727;-56
2022/04/28 13:37:38;;;;;;;5.30;4.17;;;;;;;;;;5092663;28;20206;-55
2022/04/28 13:40:04;;;;;;;8.73;4.80;;;;;;;;;;5092623;28;20196;-56
2022/04/28 13:42:30;;;;;;;7.77;5.07;;;;;;;;;;5092535;28;20210;-56
2022/04/28 13:44:58;;;;;;;5.90;4.10;;;;;;;;;;5091516;28;20199;-56
2022/04/28 13:47:25;;;;;;;4.70;4.20;;;;;;;;;;5092165;28;20263;-56
2022/04/28 13:49:51;;;;;;;9.90;5.30;;;;;;;;;;5092435;28;20627;-56
2022/04/28 13:52:17;;;;;;;8.70;4.13;;;;;;;;;;5092128;28;20237;-56
2022/04/28 13:54:43;;;;;;;6.90;4.17;;;;;;;;;;5092562;28;20199;-56
2022/04/28 13:57:09;;;;;;;6.30;4.20;;;;;;;;;;5092247;28;20191;-56
2022/04/28 13:59:35;;;;;;;6.43;4.23;;;;;;;;;;5092407;28;20194;-55
2022/04/28 14:02:02;;;;;;;6.80;3.77;;;;;;;;;;5092107;28;20729;-55
2022/04/28 14:04:28;;;;;;;6.63;4.43;;;;;;;;;;5091703;28;20221;-57
2022/04/28 14:06:54;;;;;;;6.30;3.43;;;;;;;;;;5091969;28;20504;-57
2022/04/28 14:09:21;;;;;;;8.47;4.03;;;;;;;;;;5091741;28;20407;-57
2022/04/28 14:11:47;;;;;;;5.43;3.80;;;;;;;;;;5091985;28;20226;-55
2022/04/28 14:14:13;;;;;;;7.30;3.73;;;;;;;;;;5091762;28;20218;-55
2022/04/28 14:16:39;;;;;;;7.00;3.93;;;;;;;;;;5091870;28;20649;-55
2022/04/28 14:19:07;;;;;;;7.47;3.90;;;;;;;;;;5091508;28;20195;-56
2022/04/28 14:21:33;;;;;;;7.50;3.83;;;;;;;;;;5091561;28;20276;-56
2022/04/28 14:23:59;;;;;;;7.93;3.50;;;;;;;;;;5091439;28;20215;-58
2022/04/28 14:26:25;;;;;;;10.67;4.10;;;;;;;;;;5091535;28;20194;-58
2022/04/28 14:28:51;;;;;;;9.20;3.97;;;;;;;;;;5091522;28;20244;-57
2022/04/28 14:31:18;;;;;;;8.80;4.37;;;;;;;;;;5091504;28;20227;-57
2022/04/28 14:33:44;;;;;;;6.23;3.70;;;;;;;;;;5091889;28;20645;-57
2022/04/28 14:36:11;;;;;;;5.93;3.57;;;;;;;;;;5091706;28;20228;-57
2022/04/28 14:38:37;;;;;;;6.77;3.50;;;;;;;;;;5091514;28;20203;-57
2022/04/28 14:41:04;;;;;;;6.33;3.73;;;;;;;;;;5091678;28;20191;-57
2022/04/28 14:43:30;;;;;;;9.77;4.40;;;;;;;;;;5091679;28;20191;-57
2022/04/28 14:45:56;;;;;;;7.77;4.03;;;;;;;;;;5091636;28;20237;-57
2022/04/28 14:48:22;;;;;;;8.03;4.07;;;;;;;;;;5091309;28;20360;-57
2022/04/28 14:53:34;;;;;;;10.23;4.13;;;;;;;;;;5091615;28;20684;-57
2022/04/28 14:56:00;;;;;;;8.87;4.13;;;;;;;;;;5092909;28;20195;-56
2022/04/28 14:58:26;;;;;;;10.70;4.00;;;;;;;;;;5095612;28;20320;-56
2022/04/28 15:00:52;;;;;;;6.73;3.53;;;;;;;;;;5095695;28;20191;-57
2022/04/28 15:03:19;;;;;;;9.90;3.90;;;;;;;;;;5095383;28;20194;-56
2022/04/28 15:05:45;;;;;;;9.80;4.03;;;;;;;;;;5095627;28;20195;-57
2022/04/28 15:08:11;;;;;;;8.53;3.77;;;;;;;;;;5095367;28;20195;-57
2022/04/28 15:10:41;;;;;;;7.77;3.47;;;;;;;;;;5095346;28;20221;-57
2022/04/28 15:13:08;;;;;;;7.80;3.73;;;;;;;;;;5095502;28;20673;-56
2022/04/28 15:15:35;;;;;;;7.77;3.50;;;;;;;;;;5095154;28;20265;-56
2022/04/28 15:18:02;;;;;;;8.43;4.27;;;;;;;;;;5095469;28;20203;-57
2022/04/28 15:20:28;;;;;;;6.67;3.67;;;;;;;;;;5095298;28;20282;-57